Terminal Aerodrome Forecast
Issued by NWS Sterling, VA

Current Version | Previous Version | Graphics & Text | Print | Product List | Glossary On
Versions: 1 2 3 4 5 6 7 8 9 10 11 12 13 14 15 16 17 18 19 20 21 22 23 24 25 26 27 28
000
FTUS41 KLWX 260500 RRA
TAFIAD
TAF
KIAD 260542Z 2606/2712 15005KT P6SM OVC045
     FM260800 10008KT 3SM -RASN OVC025
     FM261100 08010KT 1SM -SNRA OVC010
     FM261400 07009KT 3/4SM -SN OVC008
     FM262000 02009KT 2SM -SN OVC008
     FM270800 33010G20KT 5SM -SN OVC008
     FM271100 33010G20KT P6SM OVC008=

USA.gov is the U.S. government's official web portal to all federal, state and local government web resources and services.